createdAt,value
2023-03-31T00:02:15.367Z,13.38
2023-03-31T00:04:46.691Z,13.36
2023-03-31T00:07:16.574Z,13.34
2023-03-31T00:09:48.370Z,13.32
2023-03-31T00:12:16.736Z,13.33
2023-03-31T00:14:44.471Z,13.34
2023-03-31T00:17:11.730Z,13.39
2023-03-31T00:19:40.350Z,13.44
2023-03-31T00:22:08.501Z,13.48
2023-03-31T00:24:35.749Z,13.52
2023-03-31T00:27:04.272Z,13.53
2023-03-31T00:29:31.633Z,13.52
2023-03-31T00:32:00.010Z,13.51
2023-03-31T00:34:28.137Z,13.50
2023-03-31T00:36:56.844Z,13.49
2023-03-31T00:39:28.242Z,13.47
2023-03-31T00:41:54.825Z,13.47
2023-03-31T00:44:24.760Z,13.46
2023-03-31T00:46:56.026Z,13.44
2023-03-31T00:49:33.280Z,13.42
2023-03-31T00:52:23.875Z,13.41
2023-03-31T00:54:56.343Z,13.38
2023-03-31T00:57:24.160Z,13.38
2023-03-31T00:59:56.052Z,13.39
2023-03-31T01:02:25.796Z,13.41
2023-03-31T01:04:57.525Z,13.41
2023-03-31T01:07:31.133Z,13.43
2023-03-31T01:10:01.675Z,13.41
2023-03-31T01:12:28.353Z,13.38
2023-03-31T01:14:55.960Z,13.34
2023-03-31T01:17:24.421Z,13.31
2023-03-31T01:20:14.934Z,13.29
2023-03-31T01:23:15.450Z,13.28
2023-03-31T01:25:43.762Z,13.22
2023-03-31T01:28:38.721Z,13.16
2023-03-31T01:31:23.015Z,13.15
2023-03-31T01:34:08.111Z,13.21
2023-03-31T01:37:04.090Z,13.25
2023-03-31T01:39:49.282Z,13.27
2023-03-31T01:42:35.445Z,13.27
2023-03-31T01:45:40.153Z,13.25
2023-03-31T01:48:44.621Z,13.20
2023-03-31T01:51:35.780Z,13.14
2023-03-31T01:54:06.112Z,13.09
2023-03-31T01:57:03.238Z,13.03
2023-03-31T01:59:32.529Z,12.96
2023-03-31T02:02:05.881Z,12.95
2023-03-31T02:04:43.495Z,12.97
2023-03-31T02:07:19.028Z,13.01
2023-03-31T02:09:51.171Z,13.01
2023-03-31T02:12:22.033Z,12.99
2023-03-31T02:14:52.415Z,13.00
2023-03-31T02:17:30.732Z,13.02
2023-03-31T02:20:06.476Z,13.00
2023-03-31T02:22:37.722Z,12.99
2023-03-31T02:25:08.229Z,12.97
2023-03-31T02:27:43.069Z,12.95
2023-03-31T02:30:11.860Z,12.95
2023-03-31T02:32:44.468Z,12.99
2023-03-31T02:35:21.668Z,13.03
2023-03-31T02:37:53.819Z,13.07
2023-03-31T02:40:22.954Z,13.09
2023-03-31T02:42:50.421Z,13.10
2023-03-31T02:45:42.611Z,13.10
2023-03-31T02:48:14.152Z,13.10
2023-03-31T02:50:47.100Z,13.11
2023-03-31T02:53:52.709Z,13.11
2023-03-31T02:56:59.392Z,13.11
2023-03-31T03:00:10.749Z,13.13
2023-03-31T03:03:05.701Z,13.17
2023-03-31T03:06:13.780Z,13.20
2023-03-31T03:08:59.103Z,13.21
2023-03-31T03:11:33.832Z,13.22
2023-03-31T03:14:06.142Z,13.23
2023-03-31T03:16:41.690Z,13.22
2023-03-31T03:19:09.164Z,13.21
2023-03-31T03:21:36.107Z,13.18
2023-03-31T03:24:02.804Z,13.15
2023-03-31T03:26:29.437Z,13.14
2023-03-31T03:28:57.140Z,13.13
2023-03-31T03:31:24.148Z,13.14
2023-03-31T03:33:51.361Z,13.17
2023-03-31T03:36:18.894Z,13.19
2023-03-31T03:38:45.708Z,13.19
2023-03-31T03:41:12.368Z,13.19
2023-03-31T03:43:38.949Z,13.17
2023-03-31T03:46:06.152Z,13.14
2023-03-31T03:48:33.076Z,13.12
2023-03-31T03:51:02.834Z,13.08
2023-03-31T03:53:29.471Z,13.04
2023-03-31T03:55:56.134Z,13.00
2023-03-31T03:58:22.806Z,12.98
2023-03-31T04:00:49.385Z,12.95
2023-03-31T04:03:16.684Z,12.95
2023-03-31T04:05:43.660Z,13.00
2023-03-31T04:08:10.277Z,13.03
2023-03-31T04:10:36.898Z,13.05
2023-03-31T04:13:03.616Z,13.05
2023-03-31T04:15:30.239Z,13.07
2023-03-31T04:17:58.325Z,13.06
2023-03-31T04:20:31.570Z,13.02
2023-03-31T04:22:58.211Z,12.97
2023-03-31T04:25:24.935Z,12.93
2023-03-31T04:27:55.910Z,12.92
2023-03-31T04:30:24.728Z,12.93
2023-03-31T04:32:56.933Z,12.95
2023-03-31T04:35:26.188Z,13.00
2023-03-31T04:38:00.370Z,13.03
2023-03-31T04:40:27.316Z,13.05
2023-03-31T04:42:54.164Z,13.07
2023-03-31T04:45:20.810Z,13.08
2023-03-31T04:47:47.820Z,13.05
2023-03-31T04:50:16.897Z,13.03
2023-03-31T04:52:45.523Z,13.03
2023-03-31T04:55:12.268Z,13.03
2023-03-31T04:57:39.014Z,13.05
2023-03-31T05:00:11.068Z,13.10
2023-03-31T05:02:37.894Z,13.14
2023-03-31T05:05:06.164Z,13.15
2023-03-31T05:07:32.922Z,13.14
2023-03-31T05:09:59.608Z,13.12
2023-03-31T05:12:26.518Z,13.11
2023-03-31T05:14:53.192Z,13.09
2023-03-31T05:17:20.028Z,13.07
2023-03-31T05:19:46.690Z,13.06
2023-03-31T05:22:13.330Z,13.07
2023-03-31T05:24:39.961Z,13.11
2023-03-31T05:27:06.821Z,13.14
2023-03-31T05:29:33.475Z,13.18
2023-03-31T05:32:00.256Z,13.21
2023-03-31T05:34:27.085Z,13.22
2023-03-31T05:36:54.151Z,13.23
2023-03-31T05:39:21.470Z,13.20
2023-03-31T05:41:48.314Z,13.18
2023-03-31T05:44:15.716Z,13.16
2023-03-31T05:46:42.607Z,13.17
2023-03-31T05:49:09.966Z,13.20
2023-03-31T05:51:36.934Z,13.21
2023-03-31T05:54:03.792Z,13.22
2023-03-31T05:56:30.481Z,13.24
2023-03-31T05:59:00.475Z,13.24
2023-03-31T06:01:28.002Z,13.24
2023-03-31T06:03:54.978Z,13.25
2023-03-31T06:06:22.546Z,13.23
2023-03-31T06:08:50.288Z,13.22
2023-03-31T06:11:22.022Z,13.20
2023-03-31T06:13:49.185Z,13.20
2023-03-31T06:16:17.608Z,13.23
2023-03-31T06:18:45.442Z,13.24
2023-03-31T06:21:17.475Z,13.24
2023-03-31T06:23:46.126Z,13.25
2023-03-31T06:26:18.687Z,13.25
2023-03-31T06:28:46.986Z,13.25
2023-03-31T06:31:16.557Z,13.26
2023-03-31T06:33:43.997Z,13.25
2023-03-31T06:36:13.420Z,13.23
2023-03-31T06:38:40.655Z,13.24
2023-03-31T06:41:11.782Z,13.25
2023-03-31T06:43:38.691Z,13.28
2023-03-31T06:46:05.913Z,13.31
2023-03-31T06:48:33.301Z,13.33
2023-03-31T06:51:01.820Z,13.35
2023-03-31T06:53:29.388Z,13.36
2023-03-31T06:55:56.312Z,13.38
2023-03-31T06:58:23.241Z,13.39
2023-03-31T07:00:50.805Z,13.40
2023-03-31T07:03:19.325Z,13.39
2023-03-31T07:05:50.355Z,13.39
2023-03-31T07:08:17.850Z,13.40
2023-03-31T07:10:48.903Z,13.41
2023-03-31T07:13:19.186Z,13.45
2023-03-31T07:15:48.956Z,13.46
2023-03-31T07:18:17.248Z,13.47
2023-03-31T07:20:44.088Z,13.46
2023-03-31T07:23:11.024Z,13.43
2023-03-31T07:25:37.681Z,13.43
2023-03-31T07:28:05.356Z,13.45
2023-03-31T07:30:32.875Z,13.48
2023-03-31T07:33:00.009Z,13.51
2023-03-31T07:35:27.002Z,13.54
2023-03-31T07:37:54.036Z,13.58
2023-03-31T07:40:24.590Z,13.61
2023-03-31T07:42:52.497Z,13.65
2023-03-31T07:45:24.905Z,13.66
2023-03-31T07:47:52.502Z,13.68
2023-03-31T07:50:20.885Z,13.68
2023-03-31T07:52:48.548Z,13.68
2023-03-31T07:55:16.693Z,13.69
2023-03-31T07:57:46.315Z,13.70
2023-03-31T08:00:14.740Z,13.72
2023-03-31T08:02:43.182Z,13.77
2023-03-31T08:05:14.953Z,13.80
2023-03-31T08:07:43.743Z,13.86
2023-03-31T08:10:14.197Z,13.95
2023-03-31T08:12:40.992Z,14.01
2023-03-31T08:15:08.766Z,14.06
2023-03-31T08:17:35.808Z,14.11
2023-03-31T08:20:07.032Z,14.16
2023-03-31T08:22:34.800Z,14.23
2023-03-31T08:25:01.401Z,14.30
2023-03-31T08:27:28.135Z,14.35
2023-03-31T08:29:54.855Z,14.39
2023-03-31T08:32:24.678Z,14.41
2023-03-31T08:34:51.701Z,14.42
2023-03-31T08:37:18.311Z,14.42
2023-03-31T08:39:46.013Z,14.44
2023-03-31T08:42:49.756Z,14.48
2023-03-31T08:45:39.825Z,14.49
2023-03-31T08:48:22.232Z,14.51
2023-03-31T08:50:54.954Z,14.52
2023-03-31T08:53:29.070Z,14.51
2023-03-31T08:55:57.959Z,14.51
2023-03-31T08:58:42.204Z,14.49
2023-03-31T09:01:47.742Z,14.47
2023-03-31T09:04:53.280Z,14.44
2023-03-31T09:07:42.095Z,14.45
2023-03-31T09:10:35.708Z,14.47
2023-03-31T09:13:08.490Z,14.50
2023-03-31T09:15:53.437Z,14.54
2023-03-31T09:18:31.953Z,14.56
2023-03-31T09:21:15.120Z,14.58
2023-03-31T09:24:03.004Z,14.58
2023-03-31T09:26:34.618Z,14.56
2023-03-31T09:29:05.045Z,14.56
2023-03-31T09:31:32.322Z,14.57
2023-03-31T09:34:01.847Z,14.60
2023-03-31T09:36:28.993Z,14.63
2023-03-31T09:38:55.783Z,14.65
2023-03-31T09:41:22.437Z,14.67
2023-03-31T09:43:50.159Z,14.69
2023-03-31T09:46:24.900Z,14.71
2023-03-31T09:49:01.445Z,14.74
2023-03-31T09:51:32.823Z,14.76
2023-03-31T09:54:13.259Z,14.78
2023-03-31T09:56:43.041Z,14.81
2023-03-31T09:59:19.502Z,14.84
2023-03-31T10:01:49.817Z,14.85
2023-03-31T10:04:35.708Z,14.83
2023-03-31T10:07:05.171Z,14.85
2023-03-31T10:09:34.432Z,14.92
2023-03-31T10:12:15.057Z,15.01
2023-03-31T10:14:46.364Z,15.08
2023-03-31T10:17:16.991Z,15.11
2023-03-31T10:19:56.291Z,15.16
2023-03-31T10:22:22.880Z,15.19
2023-03-31T10:24:51.359Z,15.22
2023-03-31T10:27:28.966Z,15.25
2023-03-31T10:30:01.834Z,15.32
2023-03-31T10:32:39.488Z,15.36
2023-03-31T10:35:26.687Z,15.40
2023-03-31T10:37:59.892Z,15.43
2023-03-31T10:40:29.404Z,15.45
2023-03-31T10:43:03.572Z,15.51
2023-03-31T10:45:38.539Z,15.57
2023-03-31T10:48:17.205Z,15.65
2023-03-31T10:50:44.615Z,15.74
2023-03-31T10:53:14.016Z,15.86
2023-03-31T10:56:06.376Z,15.97
2023-03-31T10:59:10.429Z,16.16
2023-03-31T11:01:57.144Z,16.32
2023-03-31T11:04:44.024Z,16.42
2023-03-31T11:07:49.406Z,16.50
2023-03-31T11:10:37.444Z,16.61
2023-03-31T11:13:32.380Z,16.73
2023-03-31T11:16:14.157Z,16.91
2023-03-31T11:19:04.209Z,17.10
2023-03-31T11:22:01.825Z,17.24
2023-03-31T11:24:39.376Z,17.36
2023-03-31T11:27:28.116Z,17.41
2023-03-31T11:30:21.832Z,17.49
2023-03-31T11:33:50.404Z,17.62
2023-03-31T11:36:26.205Z,17.74
2023-03-31T11:39:22.154Z,17.84
2023-03-31T11:42:13.945Z,18.00
2023-03-31T11:44:53.604Z,18.14
2023-03-31T11:47:42.412Z,18.35
2023-03-31T11:50:15.220Z,18.54
2023-03-31T11:52:50.756Z,18.74
2023-03-31T11:55:21.846Z,18.96
2023-03-31T11:58:08.497Z,19.16
2023-03-31T12:00:41.267Z,19.23
2023-03-31T12:03:29.808Z,19.30
2023-03-31T12:06:06.343Z,19.42
2023-03-31T12:08:50.095Z,19.51
2023-03-31T12:11:22.608Z,19.55
2023-03-31T12:14:08.767Z,19.61
2023-03-31T12:16:46.341Z,19.68
2023-03-31T12:19:22.784Z,19.71
2023-03-31T12:21:55.371Z,19.60
2023-03-31T12:24:22.082Z,19.48
2023-03-31T12:27:13.461Z,19.44
2023-03-31T12:29:45.006Z,19.44
2023-03-31T12:32:22.405Z,19.45
2023-03-31T12:35:00.230Z,19.43
2023-03-31T12:38:05.793Z,19.32
2023-03-31T12:40:50.505Z,19.28
2023-03-31T12:44:02.432Z,19.19
2023-03-31T12:46:47.797Z,19.12
2023-03-31T12:49:33.257Z,19.08
2023-03-31T12:52:08.150Z,19.08
2023-03-31T12:55:09.599Z,19.04
2023-03-31T12:57:36.673Z,18.98
2023-03-31T13:00:11.735Z,18.92
2023-03-31T13:02:42.194Z,18.88
2023-03-31T13:05:39.700Z,18.88
2023-03-31T13:08:08.956Z,18.81
2023-03-31T13:10:59.229Z,18.74
2023-03-31T13:13:26.599Z,18.66
2023-03-31T13:15:57.298Z,18.58
2023-03-31T13:18:24.734Z,18.58
2023-03-31T13:23:37.440Z,18.52
2023-03-31T13:26:04.924Z,18.53
2023-03-31T13:28:42.662Z,18.61
2023-03-31T13:31:12.329Z,18.73
2023-03-31T13:33:57.520Z,18.79
2023-03-31T13:36:54.272Z,18.79
2023-03-31T13:39:39.888Z,18.76
2023-03-31T13:43:02.383Z,18.72
2023-03-31T13:45:54.969Z,18.61
2023-03-31T13:48:54.040Z,18.54
2023-03-31T13:51:35.375Z,18.43
2023-03-31T13:54:23.659Z,18.36
2023-03-31T13:57:22.149Z,18.31
2023-03-31T14:00:14.466Z,18.25
2023-03-31T14:02:57.289Z,18.19
2023-03-31T14:05:26.134Z,18.15
2023-03-31T14:08:19.123Z,18.15
2023-03-31T14:10:46.066Z,18.18
2023-03-31T14:13:17.729Z,18.18
2023-03-31T14:15:55.180Z,18.16
2023-03-31T14:18:31.317Z,18.14
2023-03-31T14:21:24.220Z,18.11
2023-03-31T14:24:09.427Z,18.08
2023-03-31T14:26:54.287Z,18.04
2023-03-31T14:29:39.637Z,17.98
2023-03-31T14:32:25.089Z,17.90
2023-03-31T14:35:10.047Z,17.80
2023-03-31T14:37:37.146Z,17.73
2023-03-31T14:40:05.194Z,17.66
2023-03-31T14:42:40.596Z,17.61
2023-03-31T14:45:18.259Z,17.56
2023-03-31T14:48:04.943Z,17.49
2023-03-31T14:50:35.712Z,17.45
2023-03-31T14:53:04.952Z,17.41
2023-03-31T14:55:49.396Z,17.40
2023-03-31T14:58:32.253Z,17.38
2023-03-31T15:00:59.674Z,17.35
2023-03-31T15:03:27.884Z,17.32
2023-03-31T15:05:59.744Z,17.27
2023-03-31T15:08:27.964Z,17.23
2023-03-31T15:11:09.633Z,17.20
2023-03-31T15:13:56.607Z,17.18
2023-03-31T15:16:36.580Z,17.16
2023-03-31T15:19:21.615Z,17.13
2023-03-31T15:21:57.231Z,17.10
2023-03-31T15:24:24.130Z,17.08
2023-03-31T15:27:35.874Z,17.06
2023-03-31T15:30:09.098Z,17.02
2023-03-31T15:32:39.334Z,17.00
2023-03-31T15:35:22.820Z,16.98
2023-03-31T15:37:54.876Z,16.96
2023-03-31T15:40:25.768Z,16.94
2023-03-31T15:45:50.248Z,16.90
2023-03-31T15:48:33.847Z,16.90
2023-03-31T15:51:05.519Z,16.89
2023-03-31T15:53:38.097Z,16.89
2023-03-31T15:56:05.432Z,16.88
2023-03-31T15:58:55.499Z,16.89
2023-03-31T16:01:24.016Z,16.88
2023-03-31T16:03:55.675Z,16.87
2023-03-31T16:06:36.961Z,16.86
2023-03-31T16:09:09.478Z,16.85
2023-03-31T16:11:46.758Z,16.84
2023-03-31T16:14:33.398Z,16.83
2023-03-31T16:17:09.778Z,16.82
2023-03-31T16:19:45.380Z,16.81
2023-03-31T16:22:21.123Z,16.81
2023-03-31T16:24:48.917Z,16.79
2023-03-31T16:27:15.961Z,16.76
2023-03-31T16:29:42.657Z,16.71
2023-03-31T16:32:14.268Z,16.67
2023-03-31T16:35:01.644Z,16.62
2023-03-31T16:37:28.559Z,16.58
2023-03-31T16:39:57.245Z,16.50
2023-03-31T16:42:24.555Z,16.43
2023-03-31T16:45:09.636Z,16.38
2023-03-31T16:47:38.220Z,16.32
2023-03-31T16:50:08.692Z,16.30
2023-03-31T16:52:36.949Z,16.29
2023-03-31T16:55:03.958Z,16.27
2023-03-31T16:57:30.920Z,16.27
2023-03-31T16:59:59.001Z,16.26
2023-03-31T17:02:26.544Z,16.25
2023-03-31T17:04:56.569Z,16.24
2023-03-31T17:07:25.991Z,16.23
2023-03-31T17:09:52.701Z,16.21
2023-03-31T17:12:19.418Z,16.21
2023-03-31T17:14:46.301Z,16.19
2023-03-31T17:17:13.868Z,16.18
2023-03-31T17:19:42.109Z,16.17
2023-03-31T17:22:08.930Z,16.14
2023-03-31T17:24:35.726Z,16.08
2023-03-31T17:27:02.406Z,16.02
2023-03-31T17:29:30.745Z,15.97
2023-03-31T17:31:57.727Z,15.90
2023-03-31T17:34:24.564Z,15.79
2023-03-31T17:36:51.680Z,15.71
2023-03-31T17:39:18.398Z,15.64
2023-03-31T17:41:45.071Z,15.54
2023-03-31T17:44:12.363Z,15.47
2023-03-31T17:46:39.120Z,15.42
2023-03-31T17:49:05.797Z,15.38
2023-03-31T17:51:34.652Z,15.35
2023-03-31T17:54:03.322Z,15.32
2023-03-31T17:56:30.257Z,15.29
2023-03-31T17:58:57.468Z,15.26
2023-03-31T18:01:24.241Z,15.24
2023-03-31T18:03:50.926Z,15.22
2023-03-31T18:06:17.902Z,15.23
2023-03-31T18:08:44.665Z,15.23
2023-03-31T18:11:11.881Z,15.20
2023-03-31T18:13:38.993Z,15.15
2023-03-31T18:16:09.821Z,15.11
2023-03-31T18:18:37.845Z,15.04
2023-03-31T18:21:07.603Z,14.98
2023-03-31T18:23:35.119Z,14.95
2023-03-31T18:26:01.987Z,14.89
2023-03-31T18:28:28.788Z,14.79
2023-03-31T18:30:55.413Z,14.74
2023-03-31T18:33:22.467Z,14.69
2023-03-31T18:35:50.400Z,14.64
2023-03-31T18:38:18.584Z,14.58
2023-03-31T18:40:50.056Z,14.55
2023-03-31T18:43:18.540Z,14.51
2023-03-31T18:45:49.521Z,14.47
2023-03-31T18:48:17.991Z,14.43
2023-03-31T18:50:46.091Z,14.40
2023-03-31T18:53:15.335Z,14.38
2023-03-31T18:55:42.500Z,14.35
2023-03-31T18:58:09.849Z,14.32
2023-03-31T19:00:36.600Z,14.30
2023-03-31T19:03:03.566Z,14.28
2023-03-31T19:05:30.429Z,14.23
2023-03-31T19:07:57.263Z,14.17
2023-03-31T19:10:23.895Z,14.13
2023-03-31T19:12:50.610Z,14.12
2023-03-31T19:15:17.565Z,14.07
2023-03-31T19:17:44.297Z,14.01
2023-03-31T19:20:16.923Z,13.93
2023-03-31T19:22:49.471Z,13.86
2023-03-31T19:25:18.509Z,13.80
2023-03-31T19:27:46.900Z,13.76
2023-03-31T19:30:19.990Z,13.72
2023-03-31T19:32:49.252Z,13.70
2023-03-31T19:35:21.140Z,13.64
2023-03-31T19:37:48.872Z,13.60
2023-03-31T19:40:15.839Z,13.57
2023-03-31T19:42:44.539Z,13.53
2023-03-31T19:45:11.663Z,13.48
2023-03-31T19:47:38.650Z,13.43
2023-03-31T19:50:07.453Z,13.39
2023-03-31T19:52:35.351Z,13.39
2023-03-31T19:55:02.259Z,13.41
2023-03-31T19:57:29.179Z,13.44
2023-03-31T19:59:56.006Z,13.46
2023-03-31T20:02:23.747Z,13.48
2023-03-31T20:04:51.947Z,13.48
2023-03-31T20:07:18.883Z,13.46
2023-03-31T20:09:46.081Z,13.42
2023-03-31T20:12:12.793Z,13.40
2023-03-31T20:14:39.846Z,13.39
2023-03-31T20:17:07.611Z,13.38
2023-03-31T20:19:35.261Z,13.35
2023-03-31T20:22:02.355Z,13.34
2023-03-31T20:24:29.693Z,13.32
2023-03-31T20:26:56.915Z,13.30
2023-03-31T20:29:24.903Z,13.30
2023-03-31T20:31:51.907Z,13.30
2023-03-31T20:34:19.327Z,13.30
2023-03-31T20:36:49.513Z,13.33
2023-03-31T20:39:16.344Z,13.35
2023-03-31T20:41:43.705Z,13.32
2023-03-31T20:44:15.152Z,13.28
2023-03-31T20:46:43.780Z,13.24
2023-03-31T20:49:10.954Z,13.18
2023-03-31T20:51:38.751Z,13.12
2023-03-31T20:54:07.671Z,13.07
2023-03-31T20:56:37.875Z,13.05
2023-03-31T20:59:06.195Z,13.04
2023-03-31T21:01:35.437Z,13.02
2023-03-31T21:04:03.253Z,13.00
2023-03-31T21:06:32.725Z,12.97
2023-03-31T21:09:01.590Z,12.95
2023-03-31T21:11:32.244Z,12.95
2023-03-31T21:13:58.988Z,12.96
2023-03-31T21:16:25.801Z,12.99
2023-03-31T21:18:55.066Z,13.02
2023-03-31T21:21:24.631Z,13.05
2023-03-31T21:23:51.644Z,13.07
2023-03-31T21:26:18.771Z,13.09
2023-03-31T21:28:45.995Z,13.12
2023-03-31T21:31:15.791Z,13.14
2023-03-31T21:33:44.664Z,13.14
2023-03-31T21:36:18.004Z,13.15
2023-03-31T21:38:45.721Z,13.16
2023-03-31T21:41:15.765Z,13.14
2023-03-31T21:43:42.572Z,13.13
2023-03-31T21:46:12.390Z,13.11
2023-03-31T21:48:38.978Z,13.09
2023-03-31T21:51:05.627Z,13.02
2023-03-31T21:53:32.548Z,12.96
2023-03-31T21:55:59.556Z,12.94
2023-03-31T21:58:29.065Z,12.95
2023-03-31T22:01:02.797Z,12.96
2023-03-31T22:03:32.279Z,12.97
2023-03-31T22:05:59.891Z,12.95
2023-03-31T22:08:29.713Z,12.94
2023-03-31T22:10:58.156Z,12.92
2023-03-31T22:13:25.624Z,12.86
2023-03-31T22:15:52.930Z,12.80
2023-03-31T22:18:20.168Z,12.75
2023-03-31T22:20:47.152Z,12.67
2023-03-31T22:23:15.036Z,12.58
2023-03-31T22:25:41.671Z,12.51
2023-03-31T22:28:09.309Z,12.45
2023-03-31T22:30:36.984Z,12.42
2023-03-31T22:33:04.105Z,12.40
2023-03-31T22:35:31.654Z,12.40
2023-03-31T22:37:58.749Z,12.40
2023-03-31T22:40:25.639Z,12.42
2023-03-31T22:42:54.806Z,12.43
2023-03-31T22:45:21.753Z,12.44
2023-03-31T22:47:48.742Z,12.43
2023-03-31T22:50:15.669Z,12.42
2023-03-31T22:52:42.377Z,12.39
2023-03-31T22:55:09.268Z,12.37
2023-03-31T22:57:36.056Z,12.35
2023-03-31T23:00:04.138Z,12.34
2023-03-31T23:02:32.234Z,12.33
2023-03-31T23:04:58.861Z,12.32
2023-03-31T23:07:25.907Z,12.29
2023-03-31T23:09:52.539Z,12.23
2023-03-31T23:12:21.068Z,12.17
2023-03-31T23:14:47.755Z,12.13
2023-03-31T23:17:14.429Z,12.11
2023-03-31T23:19:43.175Z,12.11
2023-03-31T23:22:09.944Z,12.09
2023-03-31T23:24:36.544Z,12.08
2023-03-31T23:27:03.200Z,12.08
2023-03-31T23:29:31.666Z,12.06
2023-03-31T23:31:58.617Z,12.03
2023-03-31T23:34:25.599Z,12.02
2023-03-31T23:36:52.902Z,12.00
2023-03-31T23:39:19.525Z,11.97
2023-03-31T23:41:46.579Z,11.94
2023-03-31T23:44:13.299Z,11.92
2023-03-31T23:46:42.152Z,11.90
2023-03-31T23:49:09.436Z,11.87
2023-03-31T23:51:36.455Z,11.87
2023-03-31T23:54:03.205Z,11.88
2023-03-31T23:56:30.728Z,11.90
2023-03-31T23:58:57.484Z,11.90
